createdAt,value
2023-01-28T00:00:24.675Z,6.38
2023-01-28T00:02:57.347Z,6.36
2023-01-28T00:05:30.113Z,6.37
2023-01-28T00:08:04.273Z,6.32
2023-01-28T00:10:39.638Z,6.43
2023-01-28T00:13:13.379Z,6.43
2023-01-28T00:15:46.008Z,6.49
2023-01-28T00:18:18.805Z,6.53
2023-01-28T00:20:57.067Z,6.49
2023-01-28T00:23:32.543Z,6.35
2023-01-28T00:26:06.254Z,6.42
2023-01-28T00:28:38.785Z,6.47
2023-01-28T00:31:12.520Z,6.47
2023-01-28T00:33:45.570Z,6.45
2023-01-28T00:36:19.128Z,6.41
2023-01-28T00:38:54.058Z,6.34
2023-01-28T00:41:27.370Z,6.42
2023-01-28T00:44:00.494Z,6.36
2023-01-28T00:46:35.096Z,6.39
2023-01-28T00:49:07.626Z,6.31
2023-01-28T00:51:40.463Z,6.27
2023-01-28T00:54:15.553Z,6.27
2023-01-28T00:56:48.227Z,6.27
2023-01-28T00:59:20.920Z,6.37
2023-01-28T01:01:54.957Z,6.32
2023-01-28T01:04:35.241Z,6.26
2023-01-28T01:07:12.231Z,6.32
2023-01-28T01:09:46.266Z,6.23
2023-01-28T01:12:19.613Z,6.22
2023-01-28T01:14:52.280Z,6.31
2023-01-28T01:17:25.098Z,6.27
2023-01-28T01:19:57.762Z,6.30
2023-01-28T01:22:33.880Z,6.27
2023-01-28T01:25:09.959Z,6.28
2023-01-28T01:27:43.073Z,6.31
2023-01-28T01:30:16.404Z,6.36
2023-01-28T01:32:49.439Z,6.36
2023-01-28T01:35:21.975Z,6.37
2023-01-28T01:37:54.751Z,6.30
2023-01-28T01:40:29.681Z,6.26
2023-01-28T01:43:05.260Z,6.21
2023-01-28T01:45:37.838Z,6.29
2023-01-28T01:48:15.629Z,6.20
2023-01-28T01:50:52.852Z,6.10
2023-01-28T01:53:29.923Z,6.09
2023-01-28T01:56:07.757Z,6.14
2023-01-28T01:58:41.299Z,6.10
2023-01-28T02:01:14.816Z,6.11
2023-01-28T02:03:53.217Z,6.17
2023-01-28T02:06:26.417Z,6.18
2023-01-28T02:08:59.534Z,6.14
2023-01-28T02:11:35.039Z,6.16
2023-01-28T02:14:07.871Z,6.10
2023-01-28T02:16:40.694Z,6.13
2023-01-28T02:19:15.139Z,6.15
2023-01-28T02:22:00.388Z,6.13
2023-01-28T02:24:46.635Z,6.19
2023-01-28T02:27:25.626Z,6.09
2023-01-28T02:30:04.358Z,6.19
2023-01-28T02:32:43.869Z,6.02
2023-01-28T02:35:19.177Z,6.05
2023-01-28T02:37:55.004Z,6.10
2023-01-28T02:40:30.619Z,6.09
2023-01-28T02:43:05.291Z,6.14
2023-01-28T02:45:53.425Z,6.04
2023-01-28T02:48:26.523Z,6.05
2023-01-28T02:51:02.840Z,6.08
2023-01-28T02:53:44.034Z,6.10
2023-01-28T02:56:22.017Z,6.09
2023-01-28T02:58:59.663Z,6.11
2023-01-28T03:01:37.781Z,6.21
2023-01-28T03:04:13.517Z,6.21
2023-01-28T03:06:48.945Z,6.24
2023-01-28T03:09:22.596Z,6.23
2023-01-28T03:12:14.542Z,6.18
2023-01-28T03:15:07.590Z,6.13
2023-01-28T03:18:02.224Z,6.03
2023-01-28T03:20:56.829Z,6.03
2023-01-28T03:23:51.154Z,6.03
2023-01-28T03:26:43.248Z,6.03
2023-01-28T03:29:34.088Z,6.08
2023-01-28T03:32:29.475Z,6.01
2023-01-28T03:35:21.397Z,6.12
2023-01-28T03:37:54.550Z,6.06
2023-01-28T03:40:29.403Z,6.03
2023-01-28T03:43:02.109Z,6.07
2023-01-28T03:45:39.377Z,5.99
2023-01-28T03:48:12.380Z,6.03
2023-01-28T03:50:46.589Z,6.02
2023-01-28T03:53:19.963Z,6.07
2023-01-28T03:56:03.135Z,6.01
2023-01-28T03:58:53.140Z,6.01
2023-01-28T04:01:26.473Z,5.97
2023-01-28T04:04:01.904Z,5.99
2023-01-28T04:06:36.107Z,6.00
2023-01-28T04:09:34.431Z,5.97
2023-01-28T04:12:28.167Z,5.93
2023-01-28T04:15:00.913Z,5.94
2023-01-28T04:17:36.725Z,5.95
2023-01-28T04:20:12.466Z,6.00
2023-01-28T04:22:46.588Z,5.95
2023-01-28T04:25:20.753Z,5.91
2023-01-28T04:27:54.386Z,5.93
2023-01-28T04:30:29.221Z,5.96
2023-01-28T04:33:28.994Z,5.98
2023-01-28T04:36:07.446Z,5.97
2023-01-28T04:38:51.535Z,5.93
2023-01-28T04:41:34.508Z,5.92
2023-01-28T04:44:13.862Z,5.86
2023-01-28T04:47:12.871Z,5.89
2023-01-28T04:50:10.578Z,5.91
2023-01-28T04:52:49.189Z,5.87
2023-01-28T04:55:30.272Z,5.84
2023-01-28T04:58:03.552Z,5.86
2023-01-28T05:00:36.967Z,5.89
2023-01-28T05:03:09.968Z,5.89
2023-01-28T05:05:42.782Z,5.80
2023-01-28T05:08:43.195Z,5.85
2023-01-28T05:11:17.316Z,5.86
2023-01-28T05:13:53.299Z,5.87
2023-01-28T05:16:26.601Z,5.86
2023-01-28T05:18:59.399Z,5.80
2023-01-28T05:21:38.428Z,5.85
2023-01-28T05:24:15.841Z,5.80
2023-01-28T05:26:51.517Z,5.77
2023-01-28T05:29:24.342Z,5.82
2023-01-28T05:31:57.152Z,5.87
2023-01-28T05:34:29.899Z,5.86
2023-01-28T05:37:03.735Z,5.83
2023-01-28T05:39:38.651Z,5.88
2023-01-28T05:42:12.923Z,5.85
2023-01-28T05:44:50.675Z,5.78
2023-01-28T05:47:45.524Z,5.80
2023-01-28T05:50:37.523Z,5.80
2023-01-28T05:53:17.706Z,5.79
2023-01-28T05:55:51.854Z,5.75
2023-01-28T05:58:27.465Z,5.80
2023-01-28T06:01:00.090Z,5.78
2023-01-28T06:03:41.046Z,5.81
2023-01-28T06:06:13.568Z,5.89
2023-01-28T06:08:46.302Z,5.87
2023-01-28T06:11:23.076Z,5.94
2023-01-28T06:14:00.400Z,5.87
2023-01-28T06:16:44.900Z,5.86
2023-01-28T06:19:32.241Z,5.75
2023-01-28T06:22:04.925Z,5.75
2023-01-28T06:24:38.405Z,5.78
2023-01-28T06:27:11.812Z,5.75
2023-01-28T06:29:45.786Z,5.72
2023-01-28T06:32:18.517Z,5.77
2023-01-28T06:34:52.383Z,5.72
2023-01-28T06:37:26.277Z,5.72
2023-01-28T06:39:59.134Z,5.76
2023-01-28T06:42:32.000Z,5.74
2023-01-28T06:45:06.410Z,5.73
2023-01-28T06:47:39.622Z,5.79
2023-01-28T06:50:12.718Z,5.75
2023-01-28T06:52:45.396Z,5.77
2023-01-28T06:55:18.217Z,5.74
2023-01-28T06:57:50.956Z,5.69
2023-01-28T07:00:25.288Z,5.72
2023-01-28T07:02:58.154Z,5.78
2023-01-28T07:05:30.876Z,5.72
2023-01-28T07:08:03.611Z,5.68
2023-01-28T07:10:36.251Z,5.70
2023-01-28T07:13:08.907Z,5.67
2023-01-28T07:15:43.113Z,5.62
2023-01-28T07:18:16.116Z,5.70
2023-01-28T07:20:48.940Z,5.70
2023-01-28T07:23:21.805Z,5.71
2023-01-28T07:25:54.613Z,5.66
2023-01-28T07:28:27.709Z,5.74
2023-01-28T07:31:01.937Z,5.68
2023-01-28T07:33:34.872Z,5.67
2023-01-28T07:36:08.156Z,5.70
2023-01-28T07:38:40.743Z,5.72
2023-01-28T07:41:13.407Z,5.65
2023-01-28T07:43:46.540Z,5.66
2023-01-28T07:46:21.642Z,5.62
2023-01-28T07:48:54.397Z,5.61
2023-01-28T07:51:27.237Z,5.61
2023-01-28T07:53:59.965Z,5.59
2023-01-28T07:56:32.738Z,5.62
2023-01-28T07:59:08.611Z,5.68
2023-01-28T08:01:43.734Z,5.61
2023-01-28T08:04:19.097Z,5.62
2023-01-28T08:06:52.342Z,5.62
2023-01-28T08:09:25.062Z,5.58
2023-01-28T08:11:57.754Z,5.65
2023-01-28T08:14:30.760Z,5.59
2023-01-28T08:17:04.924Z,5.65
2023-01-28T08:19:40.371Z,5.61
2023-01-28T08:22:13.098Z,5.67
2023-01-28T08:24:45.832Z,5.63
2023-01-28T08:27:20.528Z,5.63
2023-01-28T08:29:54.154Z,5.62
2023-01-28T08:32:29.696Z,5.66
2023-01-28T08:35:02.373Z,5.71
2023-01-28T08:37:35.199Z,5.68
2023-01-28T08:40:08.716Z,5.64
2023-01-28T08:42:41.670Z,5.64
2023-01-28T08:45:14.664Z,5.70
2023-01-28T08:47:52.717Z,5.69
2023-01-28T08:50:27.342Z,5.65
2023-01-28T08:53:00.854Z,5.70
2023-01-28T08:55:34.432Z,5.68
2023-01-28T08:58:11.904Z,5.70
2023-01-28T09:00:45.188Z,5.68
2023-01-28T09:03:20.889Z,5.68
2023-01-28T09:05:53.730Z,5.73
2023-01-28T09:08:26.602Z,5.76
2023-01-28T09:10:59.783Z,5.74
2023-01-28T09:13:32.591Z,5.79
2023-01-28T09:16:06.385Z,5.79
2023-01-28T09:18:40.783Z,5.83
2023-01-28T09:21:13.567Z,5.85
2023-01-28T09:23:46.333Z,5.86
2023-01-28T09:26:19.571Z,5.90
2023-01-28T09:28:54.873Z,5.87
2023-01-28T09:31:27.777Z,5.89
2023-01-28T09:34:02.229Z,5.92
2023-01-28T09:36:35.074Z,6.01
2023-01-28T09:39:08.265Z,6.00
2023-01-28T09:41:50.388Z,6.03
2023-01-28T09:44:32.962Z,6.05
2023-01-28T09:47:10.104Z,6.02
2023-01-28T09:49:48.255Z,6.15
2023-01-28T09:52:22.943Z,6.17
2023-01-28T09:54:59.783Z,6.21
2023-01-28T09:57:37.829Z,6.29
2023-01-28T10:00:15.710Z,6.35
2023-01-28T10:02:57.385Z,6.44
2023-01-28T10:05:39.918Z,6.48
2023-01-28T10:08:21.705Z,6.68
2023-01-28T10:11:03.448Z,6.64
2023-01-28T10:13:44.597Z,6.56
2023-01-28T10:19:41.291Z,6.55
2023-01-28T10:22:17.953Z,6.54
2023-01-28T10:24:54.095Z,6.55
2023-01-28T10:27:31.133Z,6.62
2023-01-28T10:30:17.238Z,6.60
2023-01-28T10:32:53.336Z,6.69
2023-01-28T10:35:26.617Z,6.75
2023-01-28T10:38:06.572Z,6.95
2023-01-28T10:40:39.955Z,6.93
2023-01-28T10:43:12.717Z,7.11
2023-01-28T10:45:53.225Z,7.25
2023-01-28T10:48:30.382Z,7.45
2023-01-28T10:51:28.746Z,7.53
2023-01-28T10:54:23.610Z,7.59
2023-01-28T10:57:22.443Z,7.54
2023-01-28T10:59:55.444Z,7.76
2023-01-28T11:02:32.467Z,7.82
2023-01-28T11:05:07.037Z,7.92
2023-01-28T11:07:40.090Z,7.98
2023-01-28T11:10:32.403Z,8.11
2023-01-28T11:13:17.336Z,8.17
2023-01-28T11:15:51.075Z,8.10
2023-01-28T11:18:30.491Z,7.96
2023-01-28T11:21:04.889Z,8.04
2023-01-28T11:23:39.838Z,8.44
2023-01-28T11:26:35.456Z,8.57
2023-01-28T11:29:22.034Z,8.57
2023-01-28T11:31:56.985Z,8.40
2023-01-28T11:34:31.632Z,8.53
2023-01-28T11:37:14.777Z,8.52
2023-01-28T11:40:01.916Z,8.72
2023-01-28T11:42:34.927Z,8.82
2023-01-28T11:45:16.567Z,8.97
2023-01-28T11:47:56.462Z,9.03
2023-01-28T11:50:38.995Z,9.07
2023-01-28T11:53:26.907Z,9.06
2023-01-28T11:56:10.254Z,9.17
2023-01-28T11:58:51.331Z,9.25
2023-01-28T12:01:37.246Z,9.27
2023-01-28T12:04:22.478Z,9.32
2023-01-28T12:07:02.996Z,9.39
2023-01-28T12:09:44.288Z,9.40
2023-01-28T12:12:26.242Z,9.39
2023-01-28T12:15:07.313Z,9.43
2023-01-28T12:17:52.333Z,9.45
2023-01-28T12:20:29.881Z,9.47
2023-01-28T12:23:12.545Z,9.36
2023-01-28T12:26:00.255Z,9.33
2023-01-28T12:28:39.695Z,9.20
2023-01-28T12:31:30.087Z,9.23
2023-01-28T12:34:19.094Z,9.35
2023-01-28T12:36:57.527Z,9.23
2023-01-28T12:39:41.960Z,9.21
2023-01-28T12:42:17.297Z,9.22
2023-01-28T12:44:53.385Z,9.22
2023-01-28T12:47:30.019Z,9.36
2023-01-28T12:50:13.370Z,9.40
2023-01-28T12:52:49.434Z,9.38
2023-01-28T12:55:30.747Z,9.21
2023-01-28T12:58:04.259Z,9.28
2023-01-28T13:00:40.362Z,9.13
2023-01-28T13:03:18.450Z,9.12
2023-01-28T13:05:59.785Z,9.16
2023-01-28T13:08:33.002Z,9.07
2023-01-28T13:11:13.645Z,8.90
2023-01-28T13:13:50.595Z,8.94
2023-01-28T13:16:36.048Z,8.83
2023-01-28T13:19:22.740Z,8.85
2023-01-28T13:22:14.794Z,8.73
2023-01-28T13:24:59.724Z,8.70
2023-01-28T13:27:35.450Z,8.69
2023-01-28T13:30:23.640Z,8.61
2023-01-28T13:32:58.341Z,8.57
2023-01-28T13:35:34.134Z,8.48
2023-01-28T13:38:16.560Z,8.44
2023-01-28T13:40:55.532Z,8.42
2023-01-28T13:43:38.241Z,8.36
2023-01-28T13:46:12.058Z,8.38
2023-01-28T13:48:59.124Z,8.23
2023-01-28T13:51:42.923Z,8.22
2023-01-28T13:54:20.183Z,8.18
2023-01-28T13:57:03.243Z,8.07
2023-01-28T13:59:45.895Z,8.14
2023-01-28T14:02:38.472Z,8.12
2023-01-28T14:05:32.150Z,8.11
2023-01-28T14:08:25.861Z,8.10
2023-01-28T14:11:13.841Z,8.05
2023-01-28T14:13:57.342Z,7.99
2023-01-28T14:16:35.309Z,8.04
2023-01-28T14:19:12.908Z,8.03
2023-01-28T14:21:45.739Z,8.02
2023-01-28T14:24:19.941Z,8.04
2023-01-28T14:26:58.571Z,8.17
2023-01-28T14:29:44.049Z,8.16
2023-01-28T14:32:18.011Z,8.27
2023-01-28T14:34:55.668Z,8.25
2023-01-28T14:37:32.797Z,8.38
2023-01-28T14:40:11.957Z,8.29
2023-01-28T14:42:48.880Z,8.35
2023-01-28T14:45:26.749Z,8.40
2023-01-28T14:48:21.244Z,8.41
2023-01-28T14:51:08.545Z,8.48
2023-01-28T14:54:00.524Z,8.39
2023-01-28T14:56:40.564Z,8.38
2023-01-28T14:59:23.038Z,8.47
2023-01-28T15:02:00.018Z,8.48
2023-01-28T15:04:33.847Z,8.45
2023-01-28T15:07:17.604Z,8.45
2023-01-28T15:10:04.979Z,8.42
2023-01-28T15:12:45.908Z,8.48
2023-01-28T15:15:23.105Z,8.36
2023-01-28T15:17:58.113Z,8.34
2023-01-28T15:20:32.949Z,8.26
2023-01-28T15:23:08.369Z,8.23
2023-01-28T15:25:41.386Z,8.23
2023-01-28T15:28:18.776Z,8.24
2023-01-28T15:30:52.969Z,8.26
2023-01-28T15:33:26.024Z,8.26
2023-01-28T15:35:59.790Z,8.25
2023-01-28T15:38:32.700Z,8.19
2023-01-28T15:41:09.728Z,8.24
2023-01-28T15:43:52.347Z,8.12
2023-01-28T15:46:28.589Z,8.11
2023-01-28T15:49:03.232Z,8.05
2023-01-28T15:51:37.281Z,8.07
2023-01-28T15:54:12.720Z,8.03
2023-01-28T15:56:51.079Z,8.02
2023-01-28T15:59:27.156Z,8.02
2023-01-28T16:02:20.959Z,8.02
2023-01-28T16:05:11.333Z,8.02
2023-01-28T16:07:45.485Z,8.01
2023-01-28T16:10:21.731Z,8.04
2023-01-28T16:13:02.274Z,8.03
2023-01-28T16:15:36.704Z,8.01
2023-01-28T16:18:21.552Z,7.95
2023-01-28T16:20:58.474Z,7.94
2023-01-28T16:23:31.403Z,7.88
2023-01-28T16:26:06.142Z,7.87
2023-01-28T16:28:38.977Z,7.87
2023-01-28T16:31:12.323Z,7.83
2023-01-28T16:33:45.374Z,7.81
2023-01-28T16:36:20.178Z,7.75
2023-01-28T16:38:52.809Z,7.76
2023-01-28T16:41:27.073Z,7.78
2023-01-28T16:44:01.209Z,7.68
2023-01-28T16:46:43.414Z,7.71
2023-01-28T16:49:18.488Z,7.66
2023-01-28T16:51:58.073Z,7.60
2023-01-28T16:54:35.913Z,7.57
2023-01-28T16:57:12.418Z,7.61
2023-01-28T16:59:49.823Z,7.61
2023-01-28T17:02:25.368Z,7.55
2023-01-28T17:04:58.239Z,7.56
2023-01-28T17:07:32.688Z,7.60
2023-01-28T17:10:09.139Z,7.53
2023-01-28T17:12:41.972Z,7.47
2023-01-28T17:15:16.196Z,7.50
2023-01-28T17:17:49.531Z,7.44
2023-01-28T17:20:22.498Z,7.45
2023-01-28T17:22:57.034Z,7.43
2023-01-28T17:25:32.225Z,7.44
2023-01-28T17:28:07.837Z,7.50
2023-01-28T17:30:41.830Z,7.48
2023-01-28T17:33:14.769Z,7.51
2023-01-28T17:35:48.863Z,7.50
2023-01-28T17:38:23.404Z,7.50
2023-01-28T17:41:03.643Z,7.54
2023-01-28T17:43:51.513Z,7.50
2023-01-28T17:46:27.189Z,7.51
2023-01-28T17:49:01.411Z,7.47
2023-01-28T17:51:34.285Z,7.50
2023-01-28T17:54:08.734Z,7.49
2023-01-28T17:56:41.564Z,7.47
2023-01-28T17:59:17.524Z,7.47
2023-01-28T18:01:50.902Z,7.42
2023-01-28T18:04:24.035Z,7.43
2023-01-28T18:06:57.924Z,7.46
2023-01-28T18:09:32.049Z,7.43
2023-01-28T18:12:05.520Z,7.48
2023-01-28T18:14:38.672Z,7.46
2023-01-28T18:17:11.824Z,7.44
2023-01-28T18:19:44.856Z,7.41
2023-01-28T18:22:17.397Z,7.41
2023-01-28T18:24:51.511Z,7.42
2023-01-28T18:27:24.472Z,7.39
2023-01-28T18:29:57.972Z,7.38
2023-01-28T18:32:32.233Z,7.37
2023-01-28T18:35:06.723Z,7.34
2023-01-28T18:37:39.328Z,7.37
2023-01-28T18:40:15.610Z,7.36
2023-01-28T18:42:48.388Z,7.32
2023-01-28T18:45:24.438Z,7.31
2023-01-28T18:48:02.009Z,7.35
2023-01-28T18:50:35.178Z,7.35
2023-01-28T18:53:14.724Z,7.37
2023-01-28T18:55:52.475Z,7.28
2023-01-28T18:58:25.646Z,7.30
2023-01-28T19:00:59.520Z,7.28
2023-01-28T19:03:32.318Z,7.25
2023-01-28T19:06:11.111Z,7.30
2023-01-28T19:08:44.089Z,7.35
2023-01-28T19:11:19.564Z,7.41
2023-01-28T19:13:55.221Z,7.43
2023-01-28T19:16:34.130Z,7.38
2023-01-28T19:19:11.603Z,7.39
2023-01-28T19:21:45.740Z,7.39
2023-01-28T19:24:18.941Z,7.42
2023-01-28T19:26:53.540Z,7.40
2023-01-28T19:29:29.537Z,7.44
2023-01-28T19:32:04.647Z,7.41
2023-01-28T19:34:37.865Z,7.42
2023-01-28T19:37:17.163Z,7.42
2023-01-28T19:39:50.241Z,7.41
2023-01-28T19:42:26.324Z,7.44
2023-01-28T19:45:04.179Z,7.44
2023-01-28T19:47:37.128Z,7.45
2023-01-28T19:50:10.424Z,7.40
2023-01-28T19:52:43.343Z,7.40
2023-01-28T19:55:16.742Z,7.39
2023-01-28T19:57:54.307Z,7.40
2023-01-28T20:00:32.318Z,7.39
2023-01-28T20:03:07.941Z,7.35
2023-01-28T20:05:43.298Z,7.43
2023-01-28T20:08:23.815Z,7.43
2023-01-28T20:11:03.048Z,7.39
2023-01-28T20:13:40.685Z,7.38
2023-01-28T20:16:19.470Z,7.36
2023-01-28T20:18:52.888Z,7.37
2023-01-28T20:21:26.848Z,7.38
2023-01-28T20:24:01.066Z,7.39
2023-01-28T20:26:34.785Z,7.39
2023-01-28T20:29:20.009Z,7.41
2023-01-28T20:32:13.486Z,7.44
2023-01-28T20:34:48.467Z,7.46
2023-01-28T20:37:21.562Z,7.42
2023-01-28T20:39:54.420Z,7.42
2023-01-28T20:42:30.431Z,7.42
2023-01-28T20:45:04.807Z,7.40
2023-01-28T20:47:37.725Z,7.38
2023-01-28T20:50:21.379Z,7.35
2023-01-28T20:52:54.355Z,7.35
2023-01-28T20:55:30.075Z,7.34
2023-01-28T20:58:02.879Z,7.41
2023-01-28T21:00:37.404Z,7.40
2023-01-28T21:03:17.440Z,7.39
2023-01-28T21:05:50.357Z,7.39
2023-01-28T21:08:23.154Z,7.45
2023-01-28T21:10:56.412Z,7.43
2023-01-28T21:13:29.178Z,7.41
2023-01-28T21:16:03.595Z,7.37
2023-01-28T21:18:36.705Z,7.39
2023-01-28T21:21:11.713Z,7.40
2023-01-28T21:23:44.265Z,7.36
2023-01-28T21:26:17.200Z,7.37
2023-01-28T21:28:49.877Z,7.33
2023-01-28T21:31:25.365Z,7.32
2023-01-28T21:34:01.112Z,7.32
2023-01-28T21:36:34.384Z,7.32
2023-01-28T21:39:07.157Z,7.32
2023-01-28T21:41:40.018Z,7.34
2023-01-28T21:44:12.990Z,7.34
2023-01-28T21:46:47.149Z,7.33
2023-01-28T21:49:22.101Z,7.34
2023-01-28T21:51:54.713Z,7.34
2023-01-28T21:54:27.463Z,7.34
2023-01-28T21:57:00.363Z,7.29
2023-01-28T21:59:33.146Z,7.32
2023-01-28T22:02:10.681Z,7.32
2023-01-28T22:04:44.611Z,7.32
2023-01-28T22:07:18.362Z,7.25
2023-01-28T22:09:52.382Z,7.18
2023-01-28T22:12:28.265Z,7.20
2023-01-28T22:15:01.114Z,7.26
2023-01-28T22:17:35.240Z,7.22
2023-01-28T22:20:11.232Z,7.22
2023-01-28T22:22:43.868Z,7.19
2023-01-28T22:25:16.483Z,7.18
2023-01-28T22:27:49.609Z,7.14
2023-01-28T22:30:22.306Z,7.19
2023-01-28T22:32:56.534Z,7.16
2023-01-28T22:35:29.375Z,7.21
2023-01-28T22:38:02.107Z,7.27
2023-01-28T22:40:37.897Z,7.26
2023-01-28T22:43:26.642Z,7.23
2023-01-28T22:46:11.805Z,7.14
2023-01-28T22:48:46.355Z,7.11
2023-01-28T22:51:20.231Z,7.04
2023-01-28T22:53:53.524Z,7.05
2023-01-28T22:56:47.050Z,7.02
2023-01-28T22:59:19.931Z,7.03
2023-01-28T23:01:52.827Z,7.10
2023-01-28T23:04:27.863Z,7.11
2023-01-28T23:07:00.919Z,7.12
2023-01-28T23:09:33.695Z,7.16
2023-01-28T23:12:06.935Z,7.07
2023-01-28T23:14:57.004Z,7.00
2023-01-28T23:17:47.120Z,7.08
2023-01-28T23:20:47.431Z,7.08
2023-01-28T23:23:37.667Z,7.09
2023-01-28T23:26:10.457Z,7.07
2023-01-28T23:28:43.091Z,7.03
2023-01-28T23:31:15.923Z,7.04
2023-01-28T23:33:48.752Z,7.06
2023-01-28T23:36:22.751Z,7.12
2023-01-28T23:38:55.556Z,7.18
2023-01-28T23:41:31.146Z,7.16
2023-01-28T23:44:04.096Z,7.16
2023-01-28T23:46:39.863Z,7.09
2023-01-28T23:49:12.686Z,6.94
2023-01-28T23:51:47.076Z,7.06
2023-01-28T23:54:19.850Z,7.00
2023-01-28T23:56:54.614Z,6.96
2023-01-28T23:59:27.320Z,6.98
